| time (UTC) | temp C | wind direction | speed KPH | gust KPH | rain 1hr cm | rain 24hr cm | rain mn cm | humidity % | barometer mb |
| 20260906131932 | 28 | 157 | 1.6 | 1.6 | 0.00 | 0.03 | 0.03 | 87 | 1016.2 |
| 20260906131428 | 28 | 170 | 3.2 | 3.2 | 0.00 | 0.03 | 0.03 | 88 | 1016.2 |
| 20260906130923 | 28 | 109 | 4.8 | 4.8 | 0.00 | 0.03 | 0.03 | 87 | 1016.3 |
| 20260906130423 | 28 | 169 | 1.6 | 1.6 | 0.00 | 0.03 | 0.03 | 88 | 1016.4 |
| 20260906125922 | 27 | 149 | 0.0 | 0.0 | 0.00 | 0.03 | 0.03 | 89 | 1016.4 |
| 20260906125420 | 28 | 15 | 6.4 | 8.0 | 0.00 | 0.03 | 0.03 | 89 | 1016.2 |
| 20260906124914 | 28 | 174 | 1.6 | 1.6 | 0.00 | 0.03 | 0.03 | 89 | 1016.3 |
| 20260906124410 | 27 | 150 | 1.6 | 3.2 | 0.00 | 0.03 | 0.03 | 91 | 1016.3 |
| 20260906123910 | 27 | 161 | 0.0 | 0.0 | 0.00 | 0.03 | 0.03 | 93 | 1016.3 |
| 20260906123404 | 27 | 164 | 0.0 | 0.0 | 0.00 | 0.03 | 0.03 | 93 | 1016.1 |
| 20260906122904 | 26 | 168 | 0.0 | 0.0 | 0.00 | 0.03 | 0.03 | 95 | 1015.9 |
| 20260906122359 | 26 | 160 | 0.0 | 0.0 | 0.00 | 0.03 | 0.03 | 96 | 1016.1 |
| 20260906121855 | 25 | 163 | 0.0 | 0.0 | 0.18 | 0.03 | 0.03 | 99 | 1015.9 |
| 20260906121351 | 25 | 163 | 0.0 | 0.0 | 0.18 | 0.03 | 0.03 | 99 | 1015.8 |
| 20260906120847 | 25 | 165 | 0.0 | 0.0 | 0.00 | 0.00 | 0.00 | 99 | 1015.8 |
| 20260906120343 | 25 | 165 | 0.0 | 0.0 | 0.00 | 0.00 | 0.00 | 99 | 1015.9 |
| 20260906115839 | 25 | 163 | 0.0 | 0.0 | 0.00 | 0.00 | 0.00 | 99 | 1015.6 |
| 20260906115334 | 24 | 165 | 0.0 | 0.0 | 0.00 | 0.00 | 0.00 | 99 | 1015.9 |
| 20260906114833 | 25 | 166 | 0.0 | 0.0 | 0.00 | 0.00 | 0.00 | 99 | 1015.7 |
| 20260906114329 | 23 | 167 | 0.0 | 0.0 | 0.00 | 0.00 | 0.00 | 99 | 1015.6 |
| 20260906113824 | 23 | 167 | 0.0 | 0.0 | 0.00 | 0.00 | 0.00 | 99 | 1015.6 |
| 20260906113323 | 23 | 167 | 0.0 | 0.0 | 0.00 | 0.00 | 0.00 | 99 | 1015.5 |
| 20260906112818 | 23 | 163 | 0.0 | 0.0 | 0.00 | 0.00 | 0.00 | 99 | 1015.6 |
| 20260906112314 | 23 | 154 | 0.0 | 0.0 | 0.00 | 0.00 | 0.00 | 99 | 1015.7 |
| 20260906111808 | 23 | 166 | 0.0 | 0.0 | 0.00 | 0.00 | 0.00 | 99 | 1015.4 |
| 20260906111307 | 23 | 166 | 0.0 | 0.0 | 0.00 | 0.00 | 0.00 | 99 | 1015.5 |
| 20260906110803 | 23 | 163 | 0.0 | 0.0 | 0.00 | 0.00 | 0.00 | 99 | 1015.4 |
| 20260906110259 | 23 | 167 | 0.0 | 0.0 | 0.00 | 0.00 | 0.00 | 99 | 1015.3 |
| 20260906105758 | 23 | 163 | 0.0 | 0.0 | 0.00 | 0.00 | 0.00 | 99 | 1015.5 |
| 20260906105253 | 23 | 166 | 0.0 | 0.0 | 0.00 | 0.00 | 0.00 | 99 | 1015.3 |
| 20260906104749 | 23 | 168 | 0.0 | 0.0 | 0.00 | 0.00 | 0.00 | 99 | 1015.4 |
| 20260906104247 | 23 | 171 | 0.0 | 0.0 | 0.00 | 0.00 | 0.00 | 99 | 1015.2 |
| 20260906103746 | 23 | 171 | 0.0 | 0.0 | 0.00 | 0.00 | 0.00 | 99 | 1014.9 |
| 20260906103240 | 23 | 172 | 0.0 | 0.0 | 0.00 | 0.00 | 0.00 | 99 | 1015.3 |
| 20260906102736 | 23 | 168 | 0.0 | 0.0 | 0.00 | 0.00 | 0.00 | 99 | 1015.1 |
| 20260906102235 | 23 | 168 | 0.0 | 0.0 | 0.00 | 0.00 | 0.00 | 99 | 1015.0 |
| 20260906101730 | 23 | 168 | 0.0 | 0.0 | 0.00 | 0.00 | 0.00 | 99 | 1014.6 |
| 20260906101225 | 24 | 169 | 0.0 | 0.0 | 0.00 | 0.00 | 0.00 | 99 | 1015.1 |
| 20260906100720 | 23 | 171 | 0.0 | 0.0 | 0.00 | 0.00 | 0.00 | 99 | 1015.0 |
| 20260906100220 | 23 | 171 | 0.0 | 0.0 | 0.00 | 0.00 | 0.00 | 99 | 1015.1 |
| 20260906095715 | 24 | 171 | 0.0 | 0.0 | 0.00 | 0.00 | 0.00 | 99 | 1015.0 |
| 20260906095210 | 24 | 172 | 0.0 | 0.0 | 0.00 | 0.00 | 0.00 | 99 | 1015.1 |
| 20260906094709 | 23 | 170 | 0.0 | 0.0 | 0.00 | 0.00 | 0.00 | 99 | 1015.1 |
| 20260906094205 | 23 | 169 | 0.0 | 0.0 | 0.00 | 0.00 | 0.00 | 99 | 1014.9 |
| 20260906093701 | 23 | 168 | 0.0 | 0.0 | 0.00 | 0.00 | 0.00 | 99 | 1014.9 |
| 20260906093156 | 23 | 168 | 0.0 | 0.0 | 0.00 | 0.00 | 0.00 | 99 | 1014.8 |
| 20260906092651 | 23 | 168 | 0.0 | 0.0 | 0.00 | 0.00 | 0.00 | 99 | 1014.9 |
| 20260906092150 | 23 | 168 | 0.0 | 0.0 | 0.00 | 0.00 | 0.00 | 99 | 1014.6 |
| 20260906091646 | 24 | 168 | 0.0 | 0.0 | 0.00 | 0.00 | 0.00 | 99 | 1014.6 |
| 20260906091143 | 23 | 168 | 0.0 | 0.0 | 0.00 | 0.00 | 0.00 | 99 | 1014.8 |
| 20260906090633 | 23 | 168 | 0.0 | 0.0 | 0.00 | 0.00 | 0.00 | 99 | 1014.7 |
| 20260906090132 | 24 | 168 | 0.0 | 0.0 | 0.00 | 0.00 | 0.00 | 99 | 1014.5 |
| 20260906085632 | 24 | 168 | 0.0 | 0.0 | 0.00 | 0.00 | 0.00 | 99 | 1014.6 |
| 20260906085131 | 24 | 163 | 0.0 | 0.0 | 0.00 | 0.00 | 0.00 | 99 | 1014.5 |
| 20260906084626 | 24 | 168 | 0.0 | 0.0 | 0.00 | 0.00 | 0.00 | 99 | 1014.6 |
| 20260906084125 | 24 | 169 | 0.0 | 0.0 | 0.00 | 0.00 | 0.00 | 99 | 1014.1 |
| 20260906083620 | 24 | 168 | 0.0 | 0.0 | 0.00 | 0.00 | 0.00 | 99 | 1014.4 |
| 20260906083115 | 24 | 164 | 0.0 | 0.0 | 0.00 | 0.00 | 0.00 | 99 | 1014.6 |
| 20260906082610 | 24 | 167 | 0.0 | 0.0 | 0.00 | 0.00 | 0.00 | 99 | 1014.5 |
| 20260906082106 | 24 | 167 | 0.0 | 0.0 | 0.00 | 0.00 | 0.00 | 99 | 1014.3 |
| 20260906081602 | 24 | 161 | 0.0 | 0.0 | 0.00 | 0.00 | 0.00 | 99 | 1014.4 |
| 20260906081056 | 24 | 167 | 0.0 | 0.0 | 0.00 | 0.00 | 0.00 | 99 | 1014.5 |
| 20260906080548 | 24 | 168 | 0.0 | 0.0 | 0.00 | 0.00 | 0.00 | 99 | 1014.5 |
| 20260906080044 | 24 | 168 | 0.0 | 0.0 | 0.00 | 0.00 | 0.00 | 99 | 1014.5 |
| 20260906075543 | 24 | 168 | 0.0 | 0.0 | 0.00 | 0.00 | 0.00 | 99 | 1014.7 |
| 20260906075038 | 24 | 164 | 0.0 | 0.0 | 0.00 | 0.00 | 0.00 | 99 | 1014.5 |
| 20260906074533 | 24 | 137 | 1.6 | 1.6 | 0.00 | 0.00 | 0.00 | 99 | 1014.6 |
| 20260906074031 | 24 | 156 | 1.6 | 1.6 | 0.00 | 0.00 | 0.00 | 99 | 1014.5 |
| 20260906073526 | 24 | 165 | 0.0 | 0.0 | 0.00 | 0.00 | 0.00 | 99 | 1014.2 |
| 20260906073022 | 24 | 169 | 0.0 | 0.0 | 0.00 | 0.00 | 0.00 | 99 | 1014.5 |
| 20260906072517 | 25 | 167 | 0.0 | 0.0 | 0.00 | 0.00 | 0.00 | 99 | 1014.4 |
| 20260906072014 | 25 | 164 | 0.0 | 0.0 | 0.00 | 0.00 | 0.00 | 99 | 1014.3 |
| 20260906071509 | 25 | 169 | 0.0 | 0.0 | 0.00 | 0.00 | 0.00 | 99 | 1014.4 |
| 20260906071005 | 25 | 169 | 0.0 | 0.0 | 0.00 | 0.00 | 0.00 | 99 | 1014.6 |
| 20260906070501 | 25 | 177 | 1.6 | 1.6 | 0.00 | 0.00 | 0.00 | 99 | 1014.4 |
| 20260906065956 | 25 | 171 | 0.0 | 0.0 | 0.00 | 0.00 | 0.00 | 99 | 1014.6 |
| 20260906065455 | 25 | 172 | 0.0 | 0.0 | 0.00 | 0.00 | 0.00 | 99 | 1014.5 |
| 20260906064951 | 25 | 181 | 0.0 | 1.6 | 0.00 | 0.00 | 0.00 | 99 | 1014.6 |
| 20260906064447 | 25 | 170 | 0.0 | 0.0 | 0.00 | 0.00 | 0.00 | 99 | 1014.3 |
| 20260906063942 | 25 | 173 | 0.0 | 0.0 | 0.00 | 0.00 | 0.00 | 99 | 1014.5 |
| 20260906063438 | 25 | 173 | 0.0 | 0.0 | 0.00 | 0.00 | 0.00 | 99 | 1014.4 |
| 20260906062937 | 24 | 171 | 0.0 | 0.0 | 0.00 | 0.00 | 0.00 | 99 | 1014.6 |
| 20260906062433 | 24 | 168 | 0.0 | 0.0 | 0.00 | 0.00 | 0.00 | 99 | 1014.4 |
| 20260906061927 | 24 | 170 | 0.0 | 0.0 | 0.00 | 0.00 | 0.00 | 99 | 1014.6 |
| 20260906061424 | 24 | 169 | 0.0 | 0.0 | 0.00 | 0.00 | 0.00 | 99 | 1014.6 |
| 20260906060918 | 24 | 173 | 0.0 | 0.0 | 0.00 | 0.00 | 0.00 | 99 | 1014.6 |
| 20260906060415 | 24 | 167 | 0.0 | 0.0 | 0.00 | 0.00 | 0.00 | 99 | 1014.8 |
| 20260906055911 | 24 | 163 | 0.0 | 0.0 | 0.00 | 0.00 | 0.00 | 99 | 1015.0 |
| 20260906055407 | 24 | 169 | 0.0 | 0.0 | 0.00 | 0.00 | 0.00 | 99 | 1014.8 |
| 20260906054902 | 24 | 169 | 0.0 | 0.0 | 0.00 | 0.00 | 0.00 | 99 | 1014.6 |
| 20260906054356 | 24 | 172 | 1.6 | 1.6 | 0.00 | 0.00 | 0.00 | 99 | 1015.0 |
| 20260906053853 | 24 | 168 | 0.0 | 0.0 | 0.00 | 0.00 | 0.00 | 99 | 1015.3 |
| 20260906053348 | 24 | 168 | 0.0 | 0.0 | 0.00 | 0.00 | 0.00 | 99 | 1014.8 |
| 20260906052844 | 24 | 166 | 0.0 | 0.0 | 0.00 | 0.00 | 0.00 | 99 | 1014.9 |
| 20260906052340 | 24 | 169 | 0.0 | 0.0 | 0.00 | 0.00 | 0.00 | 99 | 1015.0 |
| 20260906051837 | 24 | 170 | 0.0 | 1.6 | 0.00 | 0.00 | 0.00 | 99 | 1015.2 |
| 20260906051336 | 24 | 168 | 0.0 | 0.0 | 0.00 | 0.00 | 0.00 | 99 | 1015.0 |
| 20260906050832 | 24 | 168 | 0.0 | 0.0 | 0.00 | 0.00 | 0.00 | 99 | 1015.1 |
| 20260906050327 | 24 | 168 | 0.0 | 0.0 | 0.00 | 0.00 | 0.00 | 99 | 1015.3 |
| 20260906045826 | 24 | 163 | 1.6 | 1.6 | 0.00 | 0.00 | 0.00 | 99 | 1015.0 |
| 20260906045320 | 24 | 168 | 0.0 | 0.0 | 0.00 | 0.00 | 0.00 | 99 | 1015.0 |
| 20260906044817 | 24 | 170 | 0.0 | 0.0 | 0.00 | 0.00 | 0.00 | 99 | 1015.2 |
| 20260906044317 | 24 | 168 | 0.0 | 0.0 | 0.00 | 0.00 | 0.00 | 99 | 1015.5 |
| 20260906043813 | 25 | 167 | 0.0 | 0.0 | 0.00 | 0.00 | 0.00 | 99 | 1015.3 |
| 20260906043308 | 24 | 169 | 0.0 | 0.0 | 0.00 | 0.00 | 0.00 | 99 | 1015.5 |
| 20260906042803 | 25 | 168 | 0.0 | 0.0 | 0.00 | 0.00 | 0.00 | 99 | 1015.4 |
| 20260906042306 | 25 | 168 | 0.0 | 0.0 | 0.00 | 0.00 | 0.00 | 99 | 1015.6 |
| 20260906041757 | 25 | 169 | 0.0 | 0.0 | 0.00 | 0.00 | 0.00 | 99 | 1015.6 |
| 20260906041253 | 25 | 167 | 0.0 | 1.6 | 0.00 | 0.00 | 0.00 | 99 | 1015.4 |
| 20260906040748 | 25 | 168 | 0.0 | 0.0 | 0.00 | 0.00 | 0.00 | 99 | 1015.4 |
| 20260906040243 | 25 | 169 | 0.0 | 0.0 | 0.00 | 0.00 | 0.00 | 99 | 1015.6 |
| 20260906035738 | 25 | 171 | 0.0 | 0.0 | 0.00 | 0.08 | 0.08 | 99 | 1015.7 |
| 20260906035234 | 25 | 171 | 0.0 | 0.0 | 0.00 | 0.08 | 0.08 | 99 | 1015.5 |
| 20260906034734 | 25 | 169 | 0.0 | 0.0 | 0.00 | 0.08 | 0.08 | 99 | 1015.9 |
| 20260906034229 | 25 | 170 | 0.0 | 0.0 | 0.00 | 0.08 | 0.08 | 99 | 1015.6 |
| 20260906033725 | 25 | 169 | 0.0 | 0.0 | 0.00 | 0.08 | 0.08 | 99 | 1015.8 |
| 20260906033224 | 25 | 169 | 0.0 | 0.0 | 0.00 | 0.08 | 0.08 | 99 | 1016.0 |
| 20260906032721 | 25 | 169 | 0.0 | 0.0 | 0.00 | 0.08 | 0.08 | 99 | 1016.2 |
| 20260906032221 | 25 | 169 | 0.0 | 0.0 | 0.00 | 0.08 | 0.08 | 99 | 1016.2 |
| 20260906031716 | 25 | 166 | 0.0 | 0.0 | 0.00 | 0.08 | 0.08 | 99 | 1016.3 |
| 20260906031212 | 25 | 165 | 0.0 | 0.0 | 0.00 | 0.08 | 0.08 | 99 | 1016.3 |
| 20260906030712 | 25 | 162 | 0.0 | 1.6 | 0.00 | 0.08 | 0.08 | 99 | 1016.5 |
| 20260906030206 | 25 | 164 | 0.0 | 0.0 | 0.00 | 0.08 | 0.08 | 99 | 1016.3 |
| 20260906025706 | 25 | 168 | 0.0 | 0.0 | 0.00 | 0.08 | 0.08 | 99 | 1016.2 |
| 20260906025200 | 25 | 166 | 0.0 | 0.0 | 0.00 | 0.08 | 0.08 | 99 | 1016.1 |
| 20260906024654 | 25 | 168 | 0.0 | 0.0 | 0.00 | 0.08 | 0.08 | 99 | 1016.0 |
| 20260906024153 | 25 | 167 | 0.0 | 0.0 | 0.00 | 0.08 | 0.08 | 99 | 1015.8 |
| 20260906023649 | 25 | 172 | 0.0 | 0.0 | 0.00 | 0.08 | 0.08 | 99 | 1015.7 |
| 20260906023149 | 25 | 172 | 0.0 | 0.0 | 0.00 | 0.08 | 0.08 | 99 | 1015.6 |
| 20260906022644 | 25 | 169 | 0.0 | 0.0 | 0.00 | 0.08 | 0.08 | 99 | 1015.5 |
| 20260906022140 | 25 | 169 | 0.0 | 0.0 | 0.00 | 0.08 | 0.08 | 99 | 1015.6 |
| 20260906021636 | 25 | 169 | 0.0 | 0.0 | 0.00 | 0.08 | 0.08 | 99 | 1015.3 |
| 20260906021134 | 25 | 168 | 0.0 | 0.0 | 0.00 | 0.08 | 0.08 | 99 | 1015.3 |
| 20260906020629 | 25 | 168 | 0.0 | 0.0 | 0.00 | 0.08 | 0.08 | 98 | 1015.2 |
| 20260906020124 | 25 | 169 | 0.0 | 0.0 | 0.00 | 0.08 | 0.08 | 98 | 1015.4 |
| 20260906015618 | 25 | 172 | 0.0 | 0.0 | 0.00 | 0.08 | 0.08 | 98 | 1015.3 |
| 20260906015117 | 25 | 158 | 0.0 | 0.0 | 0.00 | 0.08 | 0.08 | 98 | 1015.2 |
| 20260906014612 | 25 | 168 | 0.0 | 0.0 | 0.00 | 0.08 | 0.08 | 98 | 1015.4 |
| 20260906014108 | 25 | 161 | 0.0 | 0.0 | 0.00 | 0.08 | 0.08 | 98 | 1015.1 |
| 20260906013603 | 25 | 167 | 0.0 | 0.0 | 0.00 | 0.08 | 0.08 | 98 | 1015.1 |
| 20260906013058 | 25 | 169 | 1.6 | 1.6 | 0.00 | 0.08 | 0.08 | 98 | 1014.9 |
| 20260906012553 | 25 | 167 | 0.0 | 0.0 | 0.00 | 0.08 | 0.08 | 98 | 1014.6 |
| 20260906012053 | 26 | 171 | 0.0 | 0.0 | 0.00 | 0.08 | 0.08 | 98 | 1014.7 |
| 20260906011549 | 26 | 168 | 0.0 | 0.0 | 0.00 | 0.08 | 0.08 | 97 | 1014.4 |
| 20260906011048 | 26 | 176 | 0.0 | 0.0 | 0.00 | 0.08 | 0.08 | 97 | 1014.4 |
| 20260906010539 | 26 | 173 | 0.0 | 0.0 | 0.00 | 0.08 | 0.08 | 97 | 1014.5 |
| 20260906010035 | 26 | 173 | 0.0 | 0.0 | 0.00 | 0.08 | 0.08 | 96 | 1014.6 |
| 20260906005534 | 26 | 169 | 0.0 | 0.0 | 0.00 | 0.08 | 0.08 | 96 | 1014.6 |
| 20260906005033 | 26 | 177 | 0.0 | 0.0 | 0.00 | 0.08 | 0.08 | 95 | 1014.7 |
| 20260906004532 | 26 | 173 | 0.0 | 0.0 | 0.00 | 0.08 | 0.08 | 95 | 1014.4 |
| 20260906004027 | 26 | 175 | 0.0 | 0.0 | 0.00 | 0.08 | 0.08 | 94 | 1014.3 |
| 20260906003522 | 26 | 169 | 0.0 | 0.0 | 0.00 | 0.08 | 0.08 | 94 | 1014.3 |
| 20260906003018 | 26 | 168 | 0.0 | 0.0 | 0.00 | 0.08 | 0.08 | 94 | 1014.5 |
| 20260906002513 | 26 | 168 | 0.0 | 0.0 | 0.00 | 0.08 | 0.08 | 94 | 1014.2 |
| 20260906002008 | 26 | 169 | 0.0 | 0.0 | 0.00 | 0.08 | 0.08 | 94 | 1014.4 |
| 20260906001504 | 26 | 167 | 1.6 | 1.6 | 0.00 | 0.08 | 0.08 | 93 | 1014.5 |
| 20260906000958 | 27 | 173 | 0.0 | 0.0 | 0.00 | 0.08 | 0.08 | 92 | 1014.2 |
| 20260906000455 | 27 | 174 | 0.0 | 0.0 | 0.00 | 0.08 | 0.08 | 92 | 1014.2 |
| 20260905235954 | 27 | 169 | 0.0 | 0.0 | 0.00 | 0.08 | 0.08 | 90 | 1014.0 |
| 20260905235448 | 27 | 175 | 0.0 | 0.0 | 0.00 | 0.08 | 0.08 | 89 | 1014.2 |
| 20260905234943 | 27 | 179 | 0.0 | 0.0 | 0.00 | 0.08 | 0.08 | 89 | 1014.1 |
| 20260905234438 | 27 | 178 | 1.6 | 1.6 | 0.00 | 0.08 | 0.08 | 88 | 1014.2 |
| 20260905233932 | 27 | 174 | 0.0 | 0.0 | 0.00 | 0.08 | 0.08 | 87 | 1014.3 |
| 20260905233428 | 28 | 173 | 0.0 | 0.0 | 0.00 | 0.08 | 0.08 | 86 | 1014.4 |
| 20260905232927 | 28 | 176 | 0.0 | 1.6 | 0.00 | 0.08 | 0.08 | 85 | 1014.4 |
| 20260905232423 | 28 | 191 | 0.0 | 0.0 | 0.00 | 0.08 | 0.08 | 83 | 1014.3 |
| 20260905231918 | 28 | 184 | 0.0 | 1.6 | 0.00 | 0.08 | 0.08 | 81 | 1014.3 |
| 20260905231414 | 28 | 192 | 3.2 | 3.2 | 0.00 | 0.08 | 0.08 | 82 | 1014.6 |
| 20260905230911 | 29 | 179 | 1.6 | 1.6 | 0.00 | 0.08 | 0.08 | 82 | 1014.5 |
| 20260905230409 | 30 | 182 | 1.6 | 3.2 | 0.00 | 0.08 | 0.08 | 79 | 1014.6 |
| 20260905225907 | 30 | 184 | 1.6 | 1.6 | 0.00 | 0.08 | 0.08 | 78 | 1014.8 |
| 20260905225403 | 30 | 187 | 1.6 | 1.6 | 0.00 | 0.08 | 0.08 | 77 | 1014.5 |
| 20260905224857 | 30 | 182 | 1.6 | 1.6 | 0.00 | 0.08 | 0.08 | 77 | 1014.7 |
| 20260905224353 | 30 | 193 | 3.2 | 3.2 | 0.00 | 0.08 | 0.08 | 79 | 1014.4 |
| 20260905223847 | 30 | 231 | 8.0 | 9.7 | 0.00 | 0.08 | 0.08 | 77 | 1014.7 |
| 20260905223345 | 30 | 357 | 4.8 | 4.8 | 0.00 | 0.08 | 0.08 | 79 | 1015.0 |
| 20260905222840 | 30 | 214 | 4.8 | 4.8 | 0.00 | 0.08 | 0.08 | 83 | 1015.0 |
| 20260905222338 | 30 | 217 | 6.4 | 8.0 | 0.00 | 0.08 | 0.08 | 84 | 1014.8 |
| 20260905221835 | 30 | 221 | 0.0 | 1.6 | 0.00 | 0.08 | 0.08 | 87 | 1014.8 |
| 20260905221332 | 30 | 204 | 1.6 | 3.2 | 0.00 | 0.08 | 0.08 | 87 | 1015.0 |
| 20260905220827 | 30 | 235 | 3.2 | 3.2 | 0.00 | 0.08 | 0.08 | 87 | 1014.9 |
| 20260905220323 | 29 | 182 | 1.6 | 1.6 | 0.00 | 0.08 | 0.08 | 88 | 1014.9 |
| 20260905215822 | 28 | 202 | 1.6 | 1.6 | 0.00 | 0.08 | 0.08 | 89 | 1014.9 |
| 20260905215318 | 28 | 188 | 1.6 | 3.2 | 0.00 | 0.08 | 0.08 | 90 | 1015.0 |
| 20260905214814 | 28 | 182 | 1.6 | 1.6 | 0.00 | 0.08 | 0.08 | 93 | 1014.7 |
| 20260905214309 | 27 | 192 | 0.0 | 1.6 | 0.00 | 0.08 | 0.08 | 93 | 1014.5 |
| 20260905213804 | 27 | 182 | 0.0 | 0.0 | 0.00 | 0.08 | 0.08 | 96 | 1014.8 |
| 20260905213300 | 27 | 170 | 0.0 | 0.0 | 0.00 | 0.08 | 0.08 | 96 | 1014.9 |
| 20260905212755 | 27 | 173 | 1.6 | 1.6 | 0.00 | 0.08 | 0.08 | 96 | 1014.7 |
| 20260905212255 | 27 | 172 | 0.0 | 0.0 | 0.00 | 0.08 | 0.08 | 96 | 1014.8 |
| 20260905211755 | 27 | 174 | 0.0 | 1.6 | 0.00 | 0.08 | 0.08 | 96 | 1014.7 |
| 20260905211250 | 27 | 175 | 0.0 | 0.0 | 0.00 | 0.08 | 0.08 | 96 | 1014.9 |
| 20260905210747 | 27 | 169 | 0.0 | 0.0 | 0.00 | 0.08 | 0.08 | 95 | 1015.0 |
| 20260905210246 | 27 | 176 | 0.0 | 1.6 | 0.00 | 0.08 | 0.08 | 95 | 1015.0 |
| 20260905205745 | 27 | 179 | 0.0 | 1.6 | 0.00 | 0.08 | 0.08 | 94 | 1015.0 |
| 20260905205240 | 27 | 194 | 0.0 | 0.0 | 0.00 | 0.08 | 0.08 | 95 | 1015.2 |
| 20260905204740 | 27 | 180 | 0.0 | 0.0 | 0.00 | 0.08 | 0.08 | 95 | 1015.2 |
| 20260905204236 | 27 | 178 | 0.0 | 0.0 | 0.00 | 0.08 | 0.08 | 94 | 1015.0 |
| 20260905203735 | 27 | 175 | 0.0 | 1.6 | 0.00 | 0.08 | 0.08 | 93 | 1014.9 |
| 20260905203231 | 27 | 176 | 1.6 | 1.6 | 0.00 | 0.08 | 0.08 | 94 | 1014.9 |
| 20260905202726 | 27 | 207 | 3.2 | 3.2 | 0.00 | 0.08 | 0.08 | 94 | 1015.1 |
| 20260905202221 | 27 | 168 | 3.2 | 3.2 | 0.00 | 0.08 | 0.08 | 94 | 1015.3 |
| 20260905201717 | 26 | 169 | 0.0 | 0.0 | 0.00 | 0.08 | 0.08 | 94 | 1015.1 |
| 20260905201217 | 27 | 174 | 3.2 | 3.2 | 0.00 | 0.08 | 0.08 | 95 | 1015.2 |
| 20260905200712 | 27 | 170 | 1.6 | 1.6 | 0.13 | 0.08 | 0.08 | 95 | 1015.4 |
| 20260905200208 | 27 | 177 | 1.6 | 1.6 | 0.30 | 0.08 | 0.08 | 94 | 1015.2 |
| 20260905195706 | 27 | 176 | 0.0 | 1.6 | 0.18 | 0.05 | 0.05 | 93 | 1015.4 |
| 20260905195201 | 28 | 195 | 4.8 | 4.8 | 0.00 | 0.03 | 0.03 | 90 | 1015.7 |
| 20260905194656 | 28 | 176 | 4.8 | 8.0 | 0.00 | 0.03 | 0.03 | 89 | 1015.6 |
| 20260905194155 | 28 | 180 | 1.6 | 3.2 | 0.00 | 0.03 | 0.03 | 87 | 1015.7 |
| 20260905193650 | 28 | 167 | 4.8 | 4.8 | 0.00 | 0.03 | 0.03 | 86 | 1015.8 |
| 20260905193145 | 29 | 207 | 1.6 | 4.8 | 0.00 | 0.03 | 0.03 | 84 | 1015.7 |
| 20260905192640 | 29 | 177 | 3.2 | 3.2 | 0.00 | 0.03 | 0.03 | 83 | 1015.7 |
| 20260905192137 | 30 | 197 | 1.6 | 3.2 | 0.00 | 0.03 | 0.03 | 81 | 1015.7 |
| 20260905191636 | 31 | 234 | 3.2 | 3.2 | 0.00 | 0.03 | 0.03 | 73 | 1015.9 |
| 20260905191134 | 31 | 186 | 1.6 | 1.6 | 0.00 | 0.03 | 0.03 | 72 | 1015.6 |
| 20260905190633 | 31 | 190 | 1.6 | 3.2 | 0.00 | 0.03 | 0.03 | 72 | 1015.8 |
| 20260905190132 | 32 | 201 | 4.8 | 4.8 | 0.00 | 0.03 | 0.03 | 69 | 1015.5 |
| 20260905185632 | 31 | 187 | 0.0 | 1.6 | 0.00 | 0.03 | 0.03 | 73 | 1015.6 |
| 20260905185132 | 32 | 286 | 4.8 | 4.8 | 0.00 | 0.03 | 0.03 | 70 | 1015.6 |
| 20260905184626 | 32 | 228 | 3.2 | 3.2 | 0.00 | 0.03 | 0.03 | 70 | 1015.9 |
| 20260905184125 | 32 | 347 | 6.4 | 8.0 | 0.00 | 0.03 | 0.03 | 68 | 1015.9 |
| 20260905183624 | 32 | 238 | 1.6 | 1.6 | 0.00 | 0.03 | 0.03 | 70 | 1015.5 |
| 20260905183119 | 32 | 187 | 0.0 | 0.0 | 0.00 | 0.03 | 0.03 | 70 | 1016.0 |
| 20260905182614 | 32 | 225 | 4.8 | 4.8 | 0.00 | 0.03 | 0.03 | 70 | 1016.0 |
| 20260905182113 | 32 | 84 | 4.8 | 4.8 | 0.00 | 0.03 | 0.03 | 71 | 1016.2 |
| 20260905181608 | 32 | 351 | 4.8 | 4.8 | 0.00 | 0.03 | 0.03 | 72 | 1016.1 |
| 20260905181107 | 31 | 179 | 1.6 | 1.6 | 0.00 | 0.03 | 0.03 | 74 | 1016.2 |
| 20260905180602 | 31 | 210 | 0.0 | 0.0 | 0.00 | 0.03 | 0.03 | 75 | 1016.1 |
| 20260905180058 | 31 | 173 | 0.0 | 0.0 | 0.00 | 0.03 | 0.03 | 74 | 1016.5 |
| 20260905175556 | 32 | 319 | 4.8 | 4.8 | 0.00 | 0.03 | 0.03 | 71 | 1016.5 |
| 20260905175052 | 32 | 166 | 1.6 | 1.6 | 0.00 | 0.03 | 0.03 | 72 | 1016.3 |
| 20260905174548 | 32 | 213 | 4.8 | 4.8 | 0.00 | 0.03 | 0.03 | 72 | 1016.4 |
| 20260905174043 | 32 | 182 | 0.0 | 1.6 | 0.00 | 0.03 | 0.03 | 72 | 1016.5 |
| 20260905173540 | 32 | 126 | 4.8 | 4.8 | 0.00 | 0.03 | 0.03 | 73 | 1016.4 |
| 20260905173035 | 31 | 182 | 1.6 | 1.6 | 0.00 | 0.03 | 0.03 | 74 | 1016.8 |
| 20260905172533 | 31 | 135 | 3.2 | 3.2 | 0.00 | 0.03 | 0.03 | 75 | 1016.8 |
| 20260905172029 | 30 | 155 | 0.0 | 1.6 | 0.00 | 0.03 | 0.03 | 78 | 1017.0 |
| 20260905171525 | 31 | 73 | 6.4 | 9.7 | 0.00 | 0.03 | 0.03 | 77 | 1017.0 |
| 20260905171021 | 31 | 119 | 3.2 | 3.2 | 0.00 | 0.03 | 0.03 | 78 | 1017.1 |
| 20260905170518 | 31 | 34 | 6.4 | 8.0 | 0.00 | 0.03 | 0.03 | 79 | 1017.4 |
| 20260905170013 | 30 | 39 | 4.8 | 4.8 | 0.00 | 0.03 | 0.03 | 81 | 1017.4 |
| 20260905165513 | 29 | 144 | 4.8 | 4.8 | 0.00 | 0.03 | 0.03 | 84 | 1017.1 |
| 20260905165007 | 30 | 67 | 1.6 | 4.8 | 0.00 | 0.03 | 0.03 | 82 | 1017.2 |
| 20260905164502 | 30 | 230 | 3.2 | 3.2 | 0.00 | 0.03 | 0.03 | 82 | 1017.5 |
| 20260905163956 | 30 | 166 | 1.6 | 3.2 | 0.00 | 0.03 | 0.03 | 82 | 1017.5 |
| 20260905163453 | 30 | 156 | 3.2 | 3.2 | 0.00 | 0.03 | 0.03 | 80 | 1017.4 |
| 20260905162949 | 31 | 174 | 1.6 | 1.6 | 0.00 | 0.03 | 0.03 | 79 | 1017.5 |
| 20260905162444 | 30 | 223 | 1.6 | 1.6 | 0.00 | 0.03 | 0.03 | 78 | 1017.5 |
| 20260905161939 | 30 | 172 | 0.0 | 0.0 | 0.00 | 0.03 | 0.03 | 82 | 1017.6 |
| 20260905161438 | 31 | 71 | 3.2 | 3.2 | 0.00 | 0.03 | 0.03 | 79 | 1017.7 |
| 20260905160936 | 31 | 166 | 1.6 | 3.2 | 0.00 | 0.03 | 0.03 | 77 | 1017.4 |
| 20260905160430 | 31 | 178 | 1.6 | 1.6 | 0.00 | 0.03 | 0.03 | 76 | 1017.7 |
| 20260905155929 | 31 | 252 | 3.2 | 3.2 | 0.00 | 0.03 | 0.03 | 77 | 1017.7 |
| 20260905155425 | 31 | 293 | 4.8 | 4.8 | 0.00 | 0.03 | 0.03 | 78 | 1017.4 |
| 20260905154923 | 30 | 155 | 0.0 | 0.0 | 0.00 | 0.03 | 0.03 | 81 | 1017.7 |
| 20260905154419 | 30 | 137 | 1.6 | 1.6 | 0.00 | 0.03 | 0.03 | 81 | 1017.7 |
| 20260905153914 | 29 | 181 | 1.6 | 3.2 | 0.00 | 0.03 | 0.03 | 84 | 1017.7 |
| 20260905153411 | 30 | 167 | 0.0 | 0.0 | 0.00 | 0.03 | 0.03 | 83 | 1017.6 |
| 20260905152910 | 30 | 153 | 1.6 | 3.2 | 0.00 | 0.03 | 0.03 | 82 | 1017.8 |
| 20260905152409 | 30 | 163 | 1.6 | 1.6 | 0.00 | 0.03 | 0.03 | 81 | 1017.8 |
| 20260905151904 | 30 | 170 | 1.6 | 1.6 | 0.00 | 0.03 | 0.03 | 82 | 1018.1 |
| 20260905151400 | 30 | 163 | 3.2 | 3.2 | 0.00 | 0.03 | 0.03 | 80 | 1017.9 |
| 20260905150855 | 31 | 352 | 4.8 | 8.0 | 0.00 | 0.03 | 0.03 | 78 | 1017.8 |
| 20260905150355 | 30 | 198 | 1.6 | 1.6 | 0.00 | 0.03 | 0.03 | 83 | 1017.9 |
| 20260905145852 | 30 | 150 | 0.0 | 1.6 | 0.00 | 0.03 | 0.03 | 85 | 1017.7 |
| 20260905145346 | 29 | 168 | 0.0 | 0.0 | 0.00 | 0.03 | 0.03 | 86 | 1018.0 |
| 20260905144845 | 29 | 181 | 1.6 | 1.6 | 0.00 | 0.03 | 0.03 | 88 | 1017.8 |
| 20260905144341 | 29 | 157 | 4.8 | 4.8 | 0.00 | 0.03 | 0.03 | 88 | 1017.7 |
| 20260905143839 | 29 | 164 | 0.0 | 0.0 | 0.00 | 0.03 | 0.03 | 88 | 1017.8 |
| 20260905143334 | 29 | 170 | 0.0 | 0.0 | 0.00 | 0.03 | 0.03 | 89 | 1017.5 |
| 20260905142834 | 28 | 156 | 0.0 | 0.0 | 0.00 | 0.03 | 0.03 | 92 | 1017.9 |
| 20260905142332 | 27 | 160 | 1.6 | 1.6 | 0.00 | 0.03 | 0.03 | 93 | 1017.6 |
| 20260905141829 | 27 | 166 | 0.0 | 0.0 | 0.00 | 0.03 | 0.03 | 93 | 1017.7 |
| 20260905141324 | 27 | 168 | 0.0 | 0.0 | 0.00 | 0.03 | 0.03 | 94 | 1018.0 |
| 20260905140820 | 27 | 172 | 0.0 | 0.0 | 0.00 | 0.03 | 0.03 | 94 | 1018.0 |
| 20260905140320 | 27 | 163 | 0.0 | 0.0 | 0.00 | 0.03 | 0.03 | 94 | 1017.7 |
| 20260905135818 | 27 | 169 | 0.0 | 0.0 | 0.00 | 0.03 | 0.03 | 95 | 1017.9 |
| 20260905135314 | 26 | 170 | 1.6 | 1.6 | 0.00 | 0.03 | 0.03 | 99 | 1018.2 |
| 20260905134810 | 26 | 162 | 1.6 | 1.6 | 0.00 | 0.03 | 0.03 | 99 | 1018.2 |
| 20260905134308 | 26 | 128 | 1.6 | 1.6 | 0.00 | 0.03 | 0.03 | 99 | 1018.4 |
| 20260905133803 | 26 | 170 | 0.0 | 0.0 | 0.00 | 0.03 | 0.03 | 99 | 1018.2 |
| 20260905133259 | 26 | 169 | 0.0 | 1.6 | 0.00 | 0.03 | 0.03 | 99 | 1018.4 |
| 20260905132757 | 25 | 164 | 0.0 | 0.0 | 0.00 | 0.03 | 0.03 | 99 | 1018.2 |
| 20260905132253 | 25 | 170 | 0.0 | 0.0 | 0.00 | 0.03 | 0.03 | 99 | 1018.2 |